Wetterdaten: Woche 25.10.21 - 31.10.21 (KW43)
Datum Zeit Temp. Aussen Temp. o. S. Temp +5cm Feuchte Auss Luftdruck Regen Sonnenschein Regendauer Solar Windben Empfang
25.10.2021 00:00 6,9 C 6,1 C 5,0 C 89 % 1020,6 hPa 0,0 l/m 0,00 h 0,00 h 0 W/m 6,0 km/h (2 Bft) 94,71 %
25.10.2021 01:00 6,2 C 5,5 C 4,5 C 91 % 1020,6 hPa 0,0 l/m 0,00 h 0,00 h 0 W/m 7,1 km/h (2 Bft) 98,57 %
25.10.2021 02:00 5,6 C 4,9 C 3,9 C 92 % 1020,6 hPa 0,0 l/m 0,00 h 0,00 h 0 W/m 7,1 km/h (2 Bft) 97,84 %
25.10.2021 03:00 5,2 C 4,4 C 3,9 C 93 % 1020,4 hPa 0,0 l/m 0,00 h 0,00 h 0 W/m 8,1 km/h (2 Bft) 95,46 %
25.10.2021 04:00 4,9 C 4,4 C 3,7 C 93 % 1020,0 hPa 0,0 l/m 0,00 h 0,00 h 0 W/m 6,0 km/h (2 Bft) 95,83 %
25.10.2021 05:00 4,7 C 4,2 C 3,4 C 94 % 1019,6 hPa 0,0 l/m 0,00 h 0,00 h 0 W/m 6,6 km/h (2 Bft) 98,57 %
25.10.2021 06:00 4,7 C 4,1 C 3,6 C 94 % 1019,3 hPa 0,0 l/m 0,00 h 0,00 h 0 W/m 7,1 km/h (2 Bft) 97,01 %
25.10.2021 07:00 4,5 C 3,9 C 3,5 C 94 % 1019,3 hPa 0,0 l/m 0,00 h 0,00 h 0 W/m 5,6 km/h (1 Bft) 97,22 %
25.10.2021 08:00 4,4 C 3,9 C 3,4 C 94 % 1019,2 hPa 0,0 l/m 0,00 h 0,00 h 10 W/m 9,2 km/h (2 Bft) 97,86 %
25.10.2021 09:00 4,9 C 4,9 C 4,3 C 95 % 1019,4 hPa 0,0 l/m 0,00 h 0,00 h 32 W/m 10,0 km/h (2 Bft) 97,20 %
25.10.2021 10:00 6,9 C 7,7 C 6,4 C 94 % 1019,5 hPa 0,0 l/m 0,27 h 0,00 h 126 W/m 11,6 km/h (2 Bft) 96,37 %
25.10.2021 11:00 9,2 C 9,7 C 8,2 C 88 % 1019,5 hPa 0,0 l/m 0,00 h 0,00 h 136 W/m 8,1 km/h (2 Bft) 97,86 %
25.10.2021 12:00 10,7 C 11,4 C 9,5 C 84 % 1019,2 hPa 0,0 l/m 0,40 h 0,00 h 204 W/m 9,1 km/h (2 Bft) 96,72 %
25.10.2021 13:00 13,0 C 13,6 C 11,1 C 79 % 1018,8 hPa 0,0 l/m 0,50 h 0,00 h 214 W/m 9,1 km/h (2 Bft) 98,58 %
25.10.2021 14:00 13,8 C 13,7 C 11,4 C 77 % 1018,4 hPa 0,0 l/m 0,00 h 0,00 h 145 W/m 13,4 km/h (3 Bft) 98,58 %
25.10.2021 15:00 13,7 C 13,0 C 10,9 C 73 % 1018,1 hPa 0,0 l/m 0,00 h 0,00 h 64 W/m 13,0 km/h (3 Bft) 95,48 %
25.10.2021 16:00 13,8 C 13,1 C 10,8 C 73 % 1017,7 hPa 0,0 l/m 0,00 h 0,00 h 41 W/m 9,4 km/h (2 Bft) 99,43 %
25.10.2021 17:00 12,8 C 11,6 C 8,9 C 81 % 1017,6 hPa 0,4 l/m 0,00 h 0,77 h 13 W/m 13,0 km/h (3 Bft) 94,58 %
25.10.2021 18:00 11,2 C 10,5 C 8,4 C 91 % 1017,8 hPa 0,2 l/m 0,00 h 0,37 h 5 W/m 13,1 km/h (3 Bft) 98,27 %
25.10.2021 19:00 11,0 C 10,6 C 8,4 C 93 % 1018,1 hPa 0,0 l/m 0,00 h 0,00 h 0 W/m 13,2 km/h (3 Bft) 98,29 %
25.10.2021 20:00 11,0 C 10,6 C 8,4 C 93 % 1018,3 hPa 0,0 l/m 0,00 h 0,00 h 0 W/m 9,4 km/h (2 Bft) 96,51 %
25.10.2021 21:00 10,9 C 10,2 C 8,5 C 93 % 1018,3 hPa 0,0 l/m 0,00 h 0,00 h 0 W/m 9,2 km/h (2 Bft) 96,27 %
25.10.2021 22:00 10,8 C 10,4 C 8,7 C 93 % 1018,6 hPa 0,0 l/m 0,00 h 0,00 h 0 W/m 5,7 km/h (1 Bft) 98,50 %
25.10.2021 23:00 11,0 C 10,6 C 8,9 C 93 % 1019,0 hPa 0,0 l/m 0,00 h 0,00 h 0 W/m 9,1 km/h (2 Bft) 94,99 %
26.10.2021 00:00 11,0 C 10,6 C 9,1 C 93 % 1018,9 hPa 0,0 l/m 0,00 h 0,00 h 0 W/m 10,0 km/h (2 Bft) 97,98 %
26.10.2021 01:00 11,0 C 10,6 C 9,2 C 93 % 1019,0 hPa 0,0 l/m 0,00 h 0,00 h 0 W/m 8,5 km/h (2 Bft) 97,79 %
26.10.2021 02:00 10,9 C 10,3 C 9,4 C 94 % 1019,0 hPa 0,0 l/m 0,00 h 0,00 h 0 W/m 7,3 km/h (2 Bft) 96,86 %
26.10.2021 03:00 10,7 C 10,1 C 9,4 C 94 % 1019,1 hPa 0,0 l/m 0,00 h 0,00 h 0 W/m 9,4 km/h (2 Bft) 98,15 %
26.10.2021 04:00 10,6 C 10,0 C 9,5 C 95 % 1019,1 hPa 0,0 l/m 0,00 h 0,00 h 0 W/m 8,6 km/h (2 Bft) 97,01 %
26.10.2021 05:00 10,5 C 9,8 C 9,1 C 95 % 1019,2 hPa 0,0 l/m 0,00 h 0,00 h 0 W/m 5,2 km/h (1 Bft) 98,08 %
26.10.2021 06:00 10,8 C 10,5 C 9,5 C 96 % 1019,6 hPa 0,0 l/m 0,00 h 0,00 h 0 W/m 8,3 km/h (2 Bft) 96,87 %
26.10.2021 07:00 11,0 C 10,6 C 9,8 C 95 % 1019,9 hPa 0,0 l/m 0,00 h 0,00 h 0 W/m 7,4 km/h (2 Bft) 98,98 %
26.10.2021 08:00 11,0 C 10,6 C 10,0 C 95 % 1020,5 hPa 0,0 l/m 0,00 h 0,00 h 9 W/m 8,5 km/h (2 Bft) 96,90 %
26.10.2021 09:00 11,1 C 10,8 C 10,2 C 95 % 1021,1 hPa 0,0 l/m 0,00 h 0,00 h 36 W/m 9,4 km/h (2 Bft) 97,86 %
26.10.2021 10:00 11,6 C 11,6 C 10,7 C 93 % 1021,4 hPa 0,0 l/m 0,00 h 0,00 h 76 W/m 12,4 km/h (3 Bft) 98,00 %
26.10.2021 11:00 12,3 C 12,6 C 11,4 C 90 % 1021,4 hPa 0,0 l/m 0,17 h 0,00 h 156 W/m 16,6 km/h (3 Bft) 97,94 %
26.10.2021 12:00 13,5 C 13,8 C 12,4 C 86 % 1021,5 hPa 0,0 l/m 0,00 h 0,00 h 162 W/m 16,2 km/h (3 Bft) 97,37 %
26.10.2021 13:00 14,2 C 14,4 C 12,5 C 82 % 1021,4 hPa 0,0 l/m 0,07 h 0,00 h 182 W/m 20,1 km/h (4 Bft) 97,57 %
26.10.2021 14:00 14,6 C 15,7 C 12,6 C 80 % 1021,3 hPa 0,0 l/m 0,47 h 0,00 h 270 W/m 21,2 km/h (4 Bft) 98,43 %
26.10.2021 15:00 14,8 C 14,7 C 12,3 C 77 % 1021,1 hPa 0,0 l/m 0,50 h 0,00 h 213 W/m 22,9 km/h (4 Bft) 97,49 %
26.10.2021 16:00 14,8 C 14,6 C 12,3 C 77 % 1021,3 hPa 0,0 l/m 0,57 h 0,00 h 157 W/m 19,1 km/h (3 Bft) 96,73 %
26.10.2021 17:00 14,3 C 13,7 C 11,6 C 78 % 1021,5 hPa 0,0 l/m 0,10 h 0,00 h 41 W/m 17,8 km/h (3 Bft) 97,79 %
26.10.2021 18:00 13,6 C 12,9 C 11,0 C 81 % 1021,9 hPa 0,0 l/m 0,00 h 0,00 h 9 W/m 16,7 km/h (3 Bft) 97,81 %
26.10.2021 19:00 12,9 C 11,9 C 10,1 C 83 % 1022,5 hPa 0,0 l/m 0,00 h 0,00 h 0 W/m 10,3 km/h (2 Bft) 96,29 %
26.10.2021 20:00 11,9 C 10,9 C 9,4 C 87 % 1022,7 hPa 0,0 l/m 0,00 h 0,00 h 0 W/m 7,9 km/h (2 Bft) 99,64 %
26.10.2021 21:00 11,6 C 11,0 C 9,4 C 89 % 1022,8 hPa 0,0 l/m 0,00 h 0,00 h 0 W/m 14,7 km/h (3 Bft) 96,49 %
26.10.2021 22:00 12,0 C 11,7 C 10,0 C 88 % 1022,9 hPa 0,0 l/m 0,00 h 0,00 h 0 W/m 20,3 km/h (4 Bft) 97,85 %
26.10.2021 23:00 12,3 C 11,7 C 10,0 C 90 % 1023,1 hPa 0,0 l/m 0,00 h 0,00 h 0 W/m 19,0 km/h (3 Bft) 98,36 %
27.10.2021 00:00 12,4 C 11,7 C 10,5 C 91 % 1023,2 hPa 0,0 l/m 0,00 h 0,00 h 0 W/m 21,5 km/h (4 Bft) 96,52 %
27.10.2021 01:00 12,4 C 11,9 C 10,6 C 93 % 1023,1 hPa 0,0 l/m 0,00 h 0,00 h 0 W/m 18,4 km/h (3 Bft) 97,72 %
27.10.2021 02:00 12,5 C 12,1 C 10,6 C 93 % 1023,2 hPa 0,0 l/m 0,00 h 0,00 h 0 W/m 17,7 km/h (3 Bft) 98,44 %
27.10.2021 03:00 12,5 C 12,1 C 10,6 C 93 % 1023,2 hPa 0,0 l/m 0,00 h 0,00 h 0 W/m 13,1 km/h (3 Bft) 96,30 %
27.10.2021 04:00 12,6 C 12,2 C 11,1 C 93 % 1023,0 hPa 0,0 l/m 0,00 h 0,00 h 0 W/m 14,7 km/h (3 Bft) 99,14 %
27.10.2021 05:00 12,6 C 12,2 C 11,1 C 92 % 1023,1 hPa 0,0 l/m 0,00 h 0,00 h 0 W/m 14,7 km/h (3 Bft) 97,66 %
27.10.2021 06:00 12,6 C 12,2 C 11,1 C 92 % 1023,2 hPa 0,0 l/m 0,00 h 0,00 h 0 W/m 15,1 km/h (3 Bft) 96,51 %
27.10.2021 07:00 12,4 C 11,9 C 10,6 C 91 % 1023,2 hPa 0,0 l/m 0,00 h 0,00 h 0 W/m 11,5 km/h (2 Bft) 98,86 %
27.10.2021 08:00 12,3 C 11,7 C 10,6 C 92 % 1023,5 hPa 0,0 l/m 0,00 h 0,00 h 8 W/m 10,7 km/h (2 Bft) 97,08 %
27.10.2021 09:00 12,3 C 12,1 C 10,9 C 91 % 1024,0 hPa 0,0 l/m 0,00 h 0,00 h 25 W/m 10,0 km/h (2 Bft) 96,66 %
27.10.2021 10:00 12,6 C 12,4 C 11,1 C 90 % 1024,3 hPa 0,0 l/m 0,00 h 0,00 h 55 W/m 10,0 km/h (2 Bft) 98,86 %
27.10.2021 11:00 13,4 C 13,6 C 12,0 C 87 % 1024,3 hPa 0,0 l/m 0,00 h 0,00 h 123 W/m 11,5 km/h (2 Bft) 96,37 %
27.10.2021 12:00 14,9 C 15,1 C 13,1 C 84 % 1024,2 hPa 0,0 l/m 0,00 h 0,00 h 94 W/m 14,4 km/h (3 Bft) 97,93 %
27.10.2021 13:00 16,5 C 17,1 C 13,9 C 78 % 1023,8 hPa 0,0 l/m 0,30 h 0,00 h 167 W/m 22,3 km/h (4 Bft) 98,46 %
27.10.2021 14:00 17,2 C 17,9 C 14,2 C 75 % 1023,3 hPa 0,0 l/m 0,67 h 0,00 h 282 W/m 20,5 km/h (4 Bft) 96,24 %
27.10.2021 15:00 16,9 C 16,8 C 14,0 C 76 % 1023,1 hPa 0,0 l/m 0,33 h 0,00 h 161 W/m 14,9 km/h (3 Bft) 97,85 %
27.10.2021 16:00 16,9 C 16,6 C 13,8 C 76 % 1022,7 hPa 0,0 l/m 0,63 h 0,00 h 163 W/m 12,5 km/h (3 Bft) 98,87 %
27.10.2021 17:00 16,3 C 15,5 C 13,1 C 77 % 1022,5 hPa 0,0 l/m 0,07 h 0,00 h 37 W/m 13,3 km/h (3 Bft) 95,64 %
27.10.2021 18:00 14,9 C 13,7 C 11,6 C 81 % 1022,4 hPa 0,0 l/m 0,00 h 0,00 h 8 W/m 8,6 km/h (2 Bft) 99,77 %
27.10.2021 19:00 13,8 C 12,4 C 10,2 C 84 % 1022,5 hPa 0,0 l/m 0,00 h 0,00 h 0 W/m 3,5 km/h (1 Bft) 96,49 %
27.10.2021 20:00 12,6 C 11,6 C 9,7 C 87 % 1022,5 hPa 0,0 l/m 0,00 h 0,00 h 0 W/m 3,3 km/h (1 Bft) 98,01 %
27.10.2021 21:00 11,8 C 10,6 C 9,0 C 89 % 1022,5 hPa 0,0 l/m 0,00 h 0,00 h 0 W/m 2,9 km/h (1 Bft) 98,01 %
27.10.2021 22:00 10,8 C 9,7 C 8,7 C 91 % 1022,3 hPa 0,0 l/m 0,00 h 0,00 h 0 W/m 5,0 km/h (1 Bft) 97,73 %
27.10.2021 23:00 9,9 C 9,0 C 8,2 C 92 % 1022,2 hPa 0,0 l/m 0,00 h 0,00 h 0 W/m 4,9 km/h (1 Bft) 97,13 %
28.10.2021 00:00 9,5 C 8,9 C 7,8 C 93 % 1021,9 hPa 0,0 l/m 0,00 h 0,00 h 0 W/m 6,0 km/h (2 Bft) 96,78 %
28.10.2021 01:00 9,2 C 8,3 C 7,8 C 94 % 1021,4 hPa 0,0 l/m 0,00 h 0,00 h 0 W/m 10,6 km/h (2 Bft) 99,64 %
28.10.2021 02:00 8,9 C 8,1 C 7,5 C 95 % 1021,2 hPa 0,0 l/m 0,00 h 0,00 h 0 W/m 10,1 km/h (2 Bft) 95,51 %
28.10.2021 03:00 8,5 C 7,8 C 7,3 C 95 % 1020,9 hPa 0,2 l/m 0,00 h 0,00 h 0 W/m 9,0 km/h (2 Bft) 98,71 %
28.10.2021 04:00 8,2 C 7,6 C 7,3 C 96 % 1020,6 hPa 0,0 l/m 0,00 h 0,00 h 0 W/m 7,6 km/h (2 Bft) 98,32 %
28.10.2021 05:00 8,0 C 7,3 C 7,3 C 96 % 1020,0 hPa 0,0 l/m 0,00 h 0,00 h 0 W/m 8,8 km/h (2 Bft) 96,60 %
28.10.2021 06:00 8,3 C 7,8 C 7,4 C 97 % 1019,6 hPa 0,0 l/m 0,00 h 0,00 h 0 W/m 10,1 km/h (2 Bft) 96,54 %
28.10.2021 07:00 8,5 C 7,8 C 7,8 C 97 % 1019,2 hPa 0,0 l/m 0,00 h 0,00 h 0 W/m 10,9 km/h (2 Bft) 98,08 %
28.10.2021 08:00 8,4 C 7,8 C 7,8 C 97 % 1018,8 hPa 0,0 l/m 0,00 h 0,00 h 12 W/m 9,5 km/h (2 Bft) 95,31 %
28.10.2021 09:00 8,6 C 8,3 C 8,4 C 98 % 1018,8 hPa 0,0 l/m 0,00 h 0,00 h 45 W/m 11,0 km/h (2 Bft) 98,79 %
28.10.2021 10:00 9,3 C 9,9 C 9,3 C 98 % 1018,5 hPa 0,0 l/m 0,10 h 0,00 h 95 W/m 11,8 km/h (2 Bft) 97,30 %
28.10.2021 11:00 11,5 C 17,6 C 11,0 C 95 % 1018,1 hPa 0,0 l/m 0,77 h 0,00 h 256 W/m 14,9 km/h (3 Bft) 97,51 %
28.10.2021 12:00 13,1 C 13,3 C 11,5 C 86 % 1017,6 hPa 0,0 l/m 0,00 h 0,00 h 51 W/m 15,0 km/h (3 Bft) 98,82 %
28.10.2021 13:00 14,5 C 15,6 C 12,4 C 80 % 1016,8 hPa 0,0 l/m 0,27 h 0,00 h 165 W/m 14,8 km/h (3 Bft) 97,29 %
28.10.2021 14:00 16,2 C 17,5 C 13,1 C 74 % 1015,9 hPa 0,0 l/m 1,00 h 0,00 h 438 W/m 15,2 km/h (3 Bft) 97,01 %
28.10.2021 15:00 16,6 C 16,3 C 13,3 C 73 % 1015,3 hPa 0,0 l/m 1,00 h 0,00 h 349 W/m 15,2 km/h (3 Bft) 99,41 %
28.10.2021 16:00 15,9 C 15,3 C 12,6 C 75 % 1014,6 hPa 0,0 l/m 0,63 h 0,00 h 162 W/m 16,6 km/h (3 Bft) 96,74 %
28.10.2021 17:00 14,8 C 14,0 C 11,7 C 79 % 1014,3 hPa 0,0 l/m 0,00 h 0,00 h 23 W/m 13,0 km/h (3 Bft) 98,72 %
28.10.2021 18:00 13,5 C 12,5 C 10,6 C 83 % 1014,2 hPa 0,0 l/m 0,00 h 0,00 h 8 W/m 12,5 km/h (3 Bft) 96,73 %
28.10.2021 19:00 12,2 C 11,4 C 9,7 C 87 % 1014,2 hPa 0,0 l/m 0,00 h 0,00 h 0 W/m 17,3 km/h (3 Bft) 97,61 %
28.10.2021 20:00 11,0 C 10,3 C 8,8 C 89 % 1014,1 hPa 0,0 l/m 0,00 h 0,00 h 0 W/m 15,4 km/h (3 Bft) 98,38 %
28.10.2021 21:00 10,1 C 9,3 C 8,2 C 90 % 1013,6 hPa 0,0 l/m 0,00 h 0,00 h 0 W/m 13,6 km/h (3 Bft) 96,73 %
28.10.2021 22:00 9,3 C 8,5 C 7,6 C 92 % 1013,3 hPa 0,0 l/m 0,00 h 0,00 h 0 W/m 14,2 km/h (3 Bft) 97,25 %
28.10.2021 23:00 8,9 C 8,2 C 7,3 C 92 % 1012,9 hPa 0,0 l/m 0,00 h 0,00 h 0 W/m 14,5 km/h (3 Bft) 98,77 %
29.10.2021 00:00 8,4 C 7,8 C 6,9 C 93 % 1012,6 hPa 0,0 l/m 0,00 h 0,00 h 0 W/m 15,1 km/h (3 Bft) 95,78 %
29.10.2021 01:00 8,2 C 7,8 C 6,8 C 93 % 1012,2 hPa 0,0 l/m 0,00 h 0,00 h 0 W/m 17,4 km/h (3 Bft) 97,58 %
29.10.2021 02:00 8,1 C 7,8 C 6,9 C 94 % 1012,0 hPa 0,0 l/m 0,00 h 0,00 h 0 W/m 15,8 km/h (3 Bft) 97,58 %
29.10.2021 03:00 8,2 C 7,8 C 7,3 C 94 % 1011,7 hPa 0,0 l/m 0,00 h 0,00 h 0 W/m 14,2 km/h (3 Bft) 98,29 %
29.10.2021 04:00 8,1 C 7,8 C 7,3 C 94 % 1011,1 hPa 0,0 l/m 0,00 h 0,00 h 0 W/m 15,6 km/h (3 Bft) 96,37 %
29.10.2021 05:00 8,1 C 7,8 C 7,3 C 94 % 1010,5 hPa 0,0 l/m 0,00 h 0,00 h 0 W/m 15,1 km/h (3 Bft) 98,29 %
29.10.2021 06:00 8,3 C 7,8 C 7,3 C 93 % 1010,3 hPa 0,0 l/m 0,00 h 0,00 h 0 W/m 14,3 km/h (3 Bft) 98,78 %
29.10.2021 07:00 8,4 C 7,8 C 7,3 C 92 % 1009,9 hPa 0,0 l/m 0,00 h 0,00 h 0 W/m 15,2 km/h (3 Bft) 94,26 %
29.10.2021 08:00 8,4 C 8,0 C 7,3 C 92 % 1009,7 hPa 0,0 l/m 0,00 h 0,00 h 7 W/m 13,8 km/h (3 Bft) 99,22 %
29.10.2021 09:00 8,8 C 8,4 C 7,6 C 91 % 1009,7 hPa 0,0 l/m 0,00 h 0,00 h 23 W/m 11,1 km/h (2 Bft) 96,55 %
29.10.2021 10:00 9,6 C 9,6 C 8,4 C 90 % 1009,7 hPa 0,0 l/m 0,13 h 0,00 h 84 W/m 14,4 km/h (3 Bft) 97,51 %
29.10.2021 11:00 11,2 C 13,1 C 9,6 C 85 % 1009,1 hPa 0,0 l/m 0,27 h 0,00 h 150 W/m 18,1 km/h (3 Bft) 98,22 %
29.10.2021 12:00 12,3 C 12,2 C 10,5 C 83 % 1008,4 hPa 0,0 l/m 0,00 h 0,00 h 144 W/m 17,0 km/h (3 Bft) 97,44 %
29.10.2021 13:00 13,8 C 13,9 C 11,5 C 80 % 1007,6 hPa 0,0 l/m 0,00 h 0,00 h 173 W/m 15,1 km/h (3 Bft) 96,58 %
29.10.2021 14:00 14,8 C 14,8 C 12,4 C 78 % 1006,9 hPa 0,0 l/m 0,20 h 0,00 h 172 W/m 15,5 km/h (3 Bft) 99,43 %
29.10.2021 15:00 16,6 C 16,7 C 13,7 C 74 % 1006,1 hPa 0,0 l/m 1,00 h 0,00 h 352 W/m 13,1 km/h (3 Bft) 97,08 %
29.10.2021 16:00 17,9 C 17,4 C 14,3 C 68 % 1005,8 hPa 0,0 l/m 0,63 h 0,00 h 149 W/m 17,6 km/h (3 Bft) 97,35 %
29.10.2021 17:00 17,1 C 16,1 C 13,3 C 69 % 1006,0 hPa 0,0 l/m 0,00 h 0,00 h 19 W/m 14,8 km/h (3 Bft) 98,07 %
29.10.2021 18:00 15,7 C 14,6 C 12,0 C 74 % 1006,0 hPa 0,0 l/m 0,00 h 0,00 h 6 W/m 8,5 km/h (2 Bft) 96,69 %
29.10.2021 19:00 15,5 C 14,7 C 12,2 C 74 % 1006,4 hPa 0,0 l/m 0,00 h 0,00 h 0 W/m 13,7 km/h (3 Bft) 97,64 %
29.10.2021 20:00 15,1 C 14,3 C 11,7 C 77 % 1007,2 hPa 0,0 l/m 0,00 h 0,00 h 0 W/m 10,6 km/h (2 Bft) 96,66 %
29.10.2021 21:00 14,5 C 13,4 C 10,8 C 81 % 1007,7 hPa 0,2 l/m 0,00 h 0,23 h 0 W/m 2,9 km/h (1 Bft) 97,43 %
29.10.2021 22:00 14,0 C 12,8 C 9,9 C 88 % 1008,0 hPa 0,4 l/m 0,00 h 0,80 h 0 W/m 12,0 km/h (2 Bft) 98,86 %
29.10.2021 23:00 13,7 C 12,8 C 10,0 C 90 % 1007,9 hPa 0,2 l/m 0,00 h 0,20 h 0 W/m 7,0 km/h (2 Bft) 95,73 %
30.10.2021 00:00 13,5 C 12,7 C 10,0 C 90 % 1007,8 hPa 0,0 l/m 0,00 h 0,43 h 0 W/m 6,1 km/h (2 Bft) 98,62 %
30.10.2021 01:00 12,7 C 11,6 C 9,5 C 91 % 1007,6 hPa 0,4 l/m 0,00 h 0,50 h 0 W/m 4,6 km/h (1 Bft) 98,15 %
30.10.2021 02:00 11,8 C 11,0 C 8,9 C 91 % 1007,0 hPa 0,0 l/m 0,00 h 0,00 h 0 W/m 5,0 km/h (1 Bft) 96,58 %
30.10.2021 03:00 11,3 C 10,6 C 8,5 C 89 % 1006,5 hPa 0,0 l/m 0,00 h 0,00 h 0 W/m 5,2 km/h (1 Bft) 97,50 %
30.10.2021 04:00 11,3 C 10,6 C 8,8 C 87 % 1005,6 hPa 0,0 l/m 0,00 h 0,00 h 0 W/m 9,4 km/h (2 Bft) 98,29 %
30.10.2021 05:00 11,4 C 10,9 C 9,3 C 86 % 1005,0 hPa 0,0 l/m 0,00 h 0,20 h 0 W/m 12,8 km/h (3 Bft) 97,65 %
30.10.2021 06:00 11,1 C 10,1 C 8,3 C 90 % 1004,8 hPa 2,0 l/m 0,00 h 1,00 h 0 W/m 13,4 km/h (3 Bft) 96,67 %
30.10.2021 07:00 10,6 C 9,5 C 8,4 C 93 % 1004,1 hPa 1,6 l/m 0,00 h 1,00 h 0 W/m 11,3 km/h (2 Bft) 97,01 %
30.10.2021 08:00 10,5 C 9,4 C 8,4 C 95 % 1003,8 hPa 1,4 l/m 0,00 h 1,00 h 0 W/m 11,2 km/h (2 Bft) 98,25 %
30.10.2021 09:00 10,6 C 9,8 C 8,7 C 95 % 1003,5 hPa 0,6 l/m 0,00 h 0,93 h 15 W/m 12,9 km/h (3 Bft) 95,95 %
30.10.2021 10:00 10,8 C 10,3 C 8,9 C 94 % 1003,4 hPa 0,2 l/m 0,00 h 1,00 h 44 W/m 12,7 km/h (3 Bft) 99,00 %
30.10.2021 11:00 11,3 C 10,7 C 9,4 C 94 % 1003,1 hPa 0,6 l/m 0,00 h 0,97 h 51 W/m 11,2 km/h (2 Bft) 96,79 %
30.10.2021 12:00 11,8 C 11,1 C 10,0 C 95 % 1002,7 hPa 0,8 l/m 0,00 h 1,00 h 70 W/m 11,6 km/h (2 Bft) 97,16 %
30.10.2021 13:00 11,7 C 11,0 C 10,0 C 95 % 1002,2 hPa 0,6 l/m 0,00 h 1,00 h 74 W/m 12,1 km/h (2 Bft) 98,72 %
30.10.2021 14:00 11,9 C 11,6 C 10,4 C 94 % 1001,6 hPa 0,4 l/m 0,00 h 1,00 h 129 W/m 15,7 km/h (3 Bft) 96,52 %
30.10.2021 15:00 13,6 C 13,4 C 11,2 C 91 % 1001,1 hPa 0,0 l/m 0,13 h 0,13 h 129 W/m 18,6 km/h (3 Bft) 98,22 %
30.10.2021 16:00 14,3 C 13,7 C 11,3 C 86 % 1001,1 hPa 0,0 l/m 0,10 h 0,00 h 57 W/m 14,4 km/h (3 Bft) 97,20 %
30.10.2021 17:00 14,0 C 13,1 C 11,7 C 87 % 1001,4 hPa 0,0 l/m 0,00 h 0,00 h 15 W/m 10,9 km/h (2 Bft) 98,08 %
30.10.2021 18:00 13,6 C 12,8 C 11,4 C 88 % 1001,8 hPa 0,0 l/m 0,00 h 0,20 h 0 W/m 10,7 km/h (2 Bft) 96,35 %
30.10.2021 19:00 13,0 C 12,1 C 10,6 C 92 % 1002,4 hPa 0,4 l/m 0,00 h 0,33 h 0 W/m 10,3 km/h (2 Bft) 97,73 %
30.10.2021 20:00 12,8 C 12,1 C 11,0 C 94 % 1003,0 hPa 0,2 l/m 0,00 h 0,17 h 0 W/m 8,5 km/h (2 Bft) 97,30 %
30.10.2021 21:00 12,8 C 12,1 C 11,1 C 95 % 1003,8 hPa 0,0 l/m 0,00 h 0,37 h 0 W/m 8,0 km/h (2 Bft) 97,51 %
30.10.2021 22:00 12,6 C 11,7 C 11,1 C 96 % 1004,5 hPa 0,4 l/m 0,00 h 0,10 h 0 W/m 6,2 km/h (2 Bft) 97,65 %
30.10.2021 23:00 12,2 C 11,2 C 10,7 C 96 % 1005,4 hPa 0,0 l/m 0,00 h 0,00 h 0 W/m 7,3 km/h (2 Bft) 96,96 %
31.10.2021 00:00 11,8 C 10,8 C 10,6 C 96 % 1006,2 hPa 0,0 l/m 0,00 h 0,00 h 0 W/m 7,9 km/h (2 Bft) 95,78 %
31.10.2021 01:00 11,3 C 10,6 C 10,1 C 97 % 1006,9 hPa 0,0 l/m 0,00 h 0,00 h 0 W/m 6,2 km/h (2 Bft) 97,93 %
31.10.2021 02:00 10,7 C 9,9 C 9,8 C 97 % 1007,3 hPa 0,0 l/m 0,00 h 0,00 h 0 W/m 8,2 km/h (2 Bft) 96,81 %
31.10.2021 03:00 10,1 C 9,4 C 9,5 C 97 % 1007,8 hPa 0,0 l/m 0,00 h 0,00 h 0 W/m 2,1 km/h (1 Bft) 98,65 %
31.10.2021 04:00 10,0 C 9,4 C 9,5 C 97 % 1007,6 hPa 0,0 l/m 0,00 h 0,00 h 0 W/m 4,3 km/h (1 Bft) 96,88 %
31.10.2021 05:00 10,0 C 9,4 C 9,5 C 97 % 1007,4 hPa 0,2 l/m 0,00 h 0,00 h 0 W/m 3,4 km/h (1 Bft) 97,35 %
31.10.2021 06:00 9,6 C 8,9 C 9,4 C 97 % 1007,1 hPa 0,0 l/m 0,00 h 0,00 h 0 W/m 3,8 km/h (1 Bft) 95,42 %
31.10.2021 07:00 9,4 C 8,9 C 9,2 C 97 % 1006,6 hPa 0,0 l/m 0,00 h 0,00 h 15 W/m 4,5 km/h (1 Bft) 97,86 %
31.10.2021 08:00 9,6 C 9,3 C 9,5 C 97 % 1006,0 hPa 0,0 l/m 0,00 h 0,00 h 41 W/m 10,2 km/h (2 Bft) 97,37 %
31.10.2021 09:00 10,3 C 10,8 C 10,4 C 97 % 1005,7 hPa 0,0 l/m 0,50 h 0,00 h 127 W/m 12,5 km/h (3 Bft) 97,37 %
31.10.2021 10:00 12,3 C 15,7 C 12,1 C 93 % 1004,9 hPa 0,0 l/m 0,67 h 0,00 h 234 W/m 11,6 km/h (2 Bft) 97,65 %
31.10.2021 11:00 14,4 C 14,5 C 13,4 C 87 % 1003,9 hPa 0,0 l/m 0,00 h 0,00 h 121 W/m 16,9 km/h (3 Bft) 98,16 %
31.10.2021 12:00 15,1 C 15,3 C 13,6 C 87 % 1002,9 hPa 0,0 l/m 0,43 h 0,00 h 196 W/m 18,3 km/h (3 Bft) 97,02 %
31.10.2021 13:00 15,6 C 15,6 C 13,9 C 87 % 1001,4 hPa 0,0 l/m 0,43 h 0,00 h 190 W/m 16,0 km/h (3 Bft) 97,22 %
31.10.2021 14:00 16,0 C 15,7 C 13,9 C 86 % 1000,3 hPa 0,0 l/m 0,47 h 0,00 h 161 W/m 19,0 km/h (3 Bft) 99,29 %
31.10.2021 15:00 16,1 C 15,6 C 13,9 C 87 % 999,2 hPa 0,0 l/m 0,00 h 0,00 h 79 W/m 17,4 km/h (3 Bft) 96,59 %
31.10.2021 16:00 16,0 C 15,6 C 13,9 C 88 % 998,1 hPa 0,0 l/m 0,00 h 0,00 h 24 W/m 18,0 km/h (3 Bft) 98,36 %
31.10.2021 17:00 16,3 C 15,7 C 13,9 C 87 % 997,1 hPa 0,0 l/m 0,00 h 0,03 h 6 W/m 18,6 km/h (3 Bft) 98,44 %
31.10.2021 18:00 16,3 C 15,1 C 12,9 C 89 % 996,2 hPa 0,6 l/m 0,00 h 0,67 h 0 W/m 18,3 km/h (3 Bft) 96,15 %
31.10.2021 19:00 16,1 C 15,2 C 12,8 C 91 % 995,4 hPa 0,2 l/m 0,00 h 0,40 h 0 W/m 20,6 km/h (4 Bft) 97,58 %
31.10.2021 20:00 14,2 C 12,7 C 11,6 C 91 % 996,6 hPa 5,0 l/m 0,00 h 0,90 h 0 W/m 23,3 km/h (4 Bft) 98,18 %
31.10.2021 21:00 11,8 C 10,8 C 10,0 C 94 % 998,2 hPa 0,0 l/m 0,00 h 0,03 h 0 W/m 11,5 km/h (2 Bft) 97,41 %
31.10.2021 22:00 11,4 C 10,6 C 10,0 C 95 % 999,1 hPa 0,0 l/m 0,00 h 0,00 h 0 W/m 15,2 km/h (3 Bft) 97,22 %
31.10.2021 23:00 10,9 C 10,1 C 9,5 C 95 % 999,7 hPa 0,0 l/m 0,00 h 0,00 h 0 W/m 12,6 km/h (3 Bft) 97,50 %
Min-Datum _ 25.10.21 25.10.21 25.10.21 29.10.21 31.10.21 - - - - 25.10.21 31.10.21
_ Min-Zeit 08:34 05:14 04:28 16:26 20:06 - - - - 07:40 06:22
Minimum _ 4,3 C 3,9 C 3,4 C 66 % 994,5 hPa - - - - 0,0 km/h (0 Bft) 37,50 %
Max-Datum _ 29.10.21 28.10.21 27.10.21 28.10.21 27.10.21 31.10.21 25.10.21 31.10.21 26.10.21 26.10.21 25.10.21
_ Max-Zeit 16:28 14:00 13:44 08:36 11:08 20:18 10:32 18:08 14:10 14:04 00:44
Maximum _ 18,2 C 23,3 C 14,5 C 98 % 1024,4 hPa 5,0 l/m 0,03 h 0,07 h 592 W/m 45,1 km/h
S-SO (6 Bft)
100,00 %
Durchschnitt _ 11,7 C 11,3 C 9,9 C 89 % 1013,7 hPa #17,2 l/m #13:46 h #15:48 h 108 W/m 12,0 km/h (2 Bft) 97,47 %
© 2021 W. Hausmann